Time,TemperatureF,DewpointF,PressureIn,WindDirection,WindDirectionDegrees,WindSpeedMPH,WindSpeedGustMPH,Humidity,HourlyPrecipIn,Conditions,Clouds,dailyrainin,SoftwareType,DateUTC
2013-11-12 00:00:00,51.0,36.0,30.00,SW,230,8.0,-999.0,55,-99.99,,,-99.99,,2013-11-12 00:00:00,
2013-11-12 00:52:00,51.0,36.0,30.00,SW,230,8.0,-999.0,55,-99.99,,,-99.99,,2013-11-12 00:52:00,
2013-11-12 02:00:00,53.0,43.0,29.98,SW,220,8.0,-999.0,67,-99.99,,,-99.99,,2013-11-12 02:00:00,
2013-11-12 02:42:00,53.0,43.0,29.98,SW,220,8.0,-999.0,67,-99.99,,,-99.99,,2013-11-12 02:42:00,
2013-11-12 02:52:00,53.0,43.0,29.98,SW,220,8.0,-999.0,67,-99.99,,,-99.99,,2013-11-12 02:52:00,
2013-11-12 04:00:00,55.0,38.0,29.95,WSW,240,13.0,-999.0,53,-99.99,,,-99.99,,2013-11-12 04:00:00,
2013-11-12 04:43:00,55.0,38.0,29.95,WSW,240,13.0,-999.0,53,-99.99,,,-99.99,,2013-11-12 04:43:00,
2013-11-12 04:53:00,55.0,38.0,29.95,WSW,240,13.0,-999.0,53,-99.99,,,-99.99,,2013-11-12 04:53:00,
2013-11-12 05:00:00,54.0,40.0,29.94,WSW,240,14.0,-999.0,58,-99.99,,,-99.99,,2013-11-12 05:00:00,
2013-11-12 05:43:00,54.0,40.0,29.94,WSW,240,14.0,-999.0,58,-99.99,,,-99.99,,2013-11-12 05:43:00,
2013-11-12 05:53:00,54.0,40.0,29.94,WSW,240,14.0,-999.0,58,-99.99,,,-99.99,,2013-11-12 05:53:00,
2013-11-12 07:00:00,54.0,40.0,29.91,SW,230,9.0,-999.0,58,-99.99,,,-99.99,,2013-11-12 07:00:00,
2013-11-12 07:41:00,54.0,40.0,29.91,SW,230,9.0,-999.0,58,-99.99,,,-99.99,,2013-11-12 07:41:00,
2013-11-12 07:52:00,54.0,40.0,29.91,SW,230,9.0,-999.0,58,-99.99,,,-99.99,,2013-11-12 07:52:00,
2013-11-12 08:00:00,54.0,39.0,29.90,West,260,6.0,-999.0,58,-99.99,,,-99.99,,2013-11-12 08:00:00,
2013-11-12 08:42:00,54.0,39.0,29.90,West,260,6.0,-999.0,58,-99.99,,,-99.99,,2013-11-12 08:42:00,
2013-11-12 08:52:00,54.0,39.0,29.90,West,260,6.0,-999.0,58,-99.99,,,-99.99,,2013-11-12 08:52:00,
2013-11-12 09:00:00,53.0,38.0,29.90,West,280,3.0,-999.0,57,-99.99,,,-99.99,,2013-11-12 09:00:00,
2013-11-12 09:42:00,53.0,38.0,29.90,West,280,3.0,-999.0,57,-99.99,,,-99.99,,2013-11-12 09:42:00,
2013-11-12 09:53:00,53.0,38.0,29.90,West,280,3.0,-999.0,57,-99.99,,,-99.99,,2013-11-12 09:53:00,
2013-11-12 10:00:00,53.0,36.0,29.91,West,280,6.0,-999.0,53,-99.99,,,-99.99,,2013-11-12 10:00:00,
2013-11-12 10:42:00,53.0,36.0,29.91,West,280,6.0,-999.0,53,-99.99,,,-99.99,,2013-11-12 10:42:00,
2013-11-12 10:52:00,53.0,36.0,29.91,West,280,6.0,-999.0,53,-99.99,,,-99.99,,2013-11-12 10:52:00,
2013-11-12 14:00:00,40.0,38.0,30.03,NNW,340,24.0,-999.0,89,-99.99,,,-99.99,,2013-11-12 14:00:00,
2013-11-12 14:42:00,40.0,38.0,30.03,NNW,340,24.0,-999.0,89,-99.99,,,-99.99,,2013-11-12 14:42:00,
2013-11-12 14:52:00,40.0,38.0,30.03,NNW,340,24.0,-999.0,89,-99.99,,,-99.99,,2013-11-12 14:52:00,
2013-11-12 15:00:00,37.0,35.0,30.05,NNW,340,30.0,-999.0,91,-99.99,,,-99.99,,2013-11-12 15:00:00,
2013-11-12 15:43:00,37.0,35.0,30.05,NNW,340,30.0,-999.0,91,-99.99,,,-99.99,,2013-11-12 15:43:00,
2013-11-12 15:53:00,37.0,35.0,30.05,NNW,340,30.0,-999.0,91,-99.99,,,-99.99,,2013-11-12 15:53:00,
2013-11-12 16:00:00,36.0,32.0,30.06,North,350,17.0,-999.0,82,-99.99,,,-99.99,,2013-11-12 16:00:00,
2013-11-12 16:42:00,36.0,32.0,30.06,North,350,17.0,-999.0,82,-99.99,,,-99.99,,2013-11-12 16:42:00,
2013-11-12 16:52:00,36.0,32.0,30.06,North,350,17.0,-999.0,82,-99.99,,,-99.99,,2013-11-12 16:52:00,
2013-11-12 17:00:00,36.0,27.0,30.06,North,0,13.0,-999.0,70,-99.99,,,-99.99,,2013-11-12 17:00:00,
2013-11-12 17:42:00,36.0,27.0,30.06,North,0,13.0,-999.0,70,-99.99,,,-99.99,,2013-11-12 17:42:00,
2013-11-12 17:52:00,36.0,27.0,30.06,North,0,13.0,-999.0,70,-99.99,,,-99.99,,2013-11-12 17:52:00,
2013-11-12 18:00:00,37.0,27.0,30.05,NNW,330,11.0,-999.0,65,-99.99,,,-99.99,,2013-11-12 18:00:00,
2013-11-12 18:42:00,37.0,27.0,30.05,NNW,330,11.0,-999.0,65,-99.99,,,-99.99,,2013-11-12 18:42:00,
2013-11-12 18:52:00,37.0,27.0,30.05,NNW,330,11.0,-999.0,65,-99.99,,,-99.99,,2013-11-12 18:52:00,
2013-11-12 19:00:00,37.0,23.0,30.06,NW,320,14.0,-999.0,57,-99.99,,,-99.99,,2013-11-12 19:00:00,
2013-11-12 19:42:00,37.0,23.0,30.06,NW,320,14.0,-999.0,57,-99.99,,,-99.99,,2013-11-12 19:42:00,
2013-11-12 19:52:00,37.0,23.0,30.06,NW,320,14.0,-999.0,57,-99.99,,,-99.99,,2013-11-12 19:52:00,
2013-11-12 20:00:00,37.0,20.0,30.08,NNW,340,15.0,-999.0,49,-99.99,,,-99.99,,2013-11-12 20:00:00,
2013-11-12 20:42:00,37.0,20.0,30.08,NNW,340,15.0,-999.0,49,-99.99,,,-99.99,,2013-11-12 20:42:00,
2013-11-12 20:52:00,37.0,20.0,30.08,NNW,340,15.0,-999.0,49,-99.99,,,-99.99,,2013-11-12 20:52:00,
2013-11-12 21:00:00,36.0,20.0,30.11,NNW,330,15.0,-999.0,52,-99.99,,,-99.99,,2013-11-12 21:00:00,
2013-11-12 21:43:00,36.0,20.0,30.11,NNW,330,15.0,-999.0,52,-99.99,,,-99.99,,2013-11-12 21:43:00,
2013-11-12 21:54:00,36.0,20.0,30.11,NNW,330,15.0,-999.0,52,-99.99,,,-99.99,,2013-11-12 21:54:00,
2013-11-12 22:00:00,36.0,20.0,30.13,North,350,14.0,-999.0,52,-99.99,,,-99.99,,2013-11-12 22:00:00,
2013-11-12 22:43:00,36.0,20.0,30.13,North,350,14.0,-999.0,52,-99.99,,,-99.99,,2013-11-12 22:43:00,
2013-11-12 22:54:00,36.0,20.0,30.13,North,350,14.0,-999.0,52,-99.99,,,-99.99,,2013-11-12 22:54:00,
2013-11-12 23:00:00,35.0,21.0,30.14,NNW,330,9.0,-999.0,55,-99.99,,,-99.99,,2013-11-12 23:00:00,
2013-11-12 23:42:00,35.0,21.0,30.14,NNW,330,9.0,-999.0,55,-99.99,,,-99.99,,2013-11-12 23:42:00,
2013-11-12 23:53:00,35.0,21.0,30.14,NNW,330,9.0,-999.0,55,-99.99,,,-99.99,,2013-11-12 23:53:00,